createdAt,value
2022-07-29T00:01:45.848Z,22.70
2022-07-29T00:04:27.169Z,22.70
2022-07-29T00:07:33.850Z,22.70
2022-07-29T00:10:02.858Z,22.70
2022-07-29T00:12:32.219Z,22.60
2022-07-29T00:15:03.169Z,22.50
2022-07-29T00:17:32.457Z,22.40
2022-07-29T00:22:55.199Z,22.40
2022-07-29T00:25:24.439Z,22.50
2022-07-29T00:27:57.524Z,22.40
2022-07-29T00:30:29.321Z,22.50
2022-07-29T00:32:58.464Z,22.60
2022-07-29T00:35:44.982Z,22.60
2022-07-29T00:38:26.825Z,22.60
2022-07-29T00:41:04.944Z,22.80
2022-07-29T00:43:33.958Z,22.80
2022-07-29T00:46:02.960Z,22.80
2022-07-29T00:48:37.221Z,22.80
2022-07-29T00:51:13.398Z,22.80
2022-07-29T00:53:45.330Z,22.80
2022-07-29T00:56:19.002Z,22.70
2022-07-29T00:58:50.678Z,22.70
2022-07-29T01:01:19.782Z,22.80
2022-07-29T05:22:44.310Z,20.30
2022-07-29T05:26:26.822Z,20.30
2022-07-29T05:28:56.410Z,20.30
2022-07-29T05:31:25.792Z,20.30
2022-07-29T05:33:55.088Z,20.30
2022-07-29T05:36:24.504Z,20.50
2022-07-29T05:38:54.622Z,20.70
2022-07-29T05:41:23.983Z,21.00
2022-07-29T05:43:54.769Z,21.30
2022-07-29T05:46:24.057Z,21.50
2022-07-29T05:48:53.266Z,21.60
2022-07-29T05:51:22.701Z,21.70
2022-07-29T05:53:51.855Z,21.80
2022-07-29T05:56:21.240Z,21.90
2022-07-29T05:58:50.378Z,21.80
2022-07-29T06:01:21.582Z,21.80
2022-07-29T06:03:51.132Z,21.80
2022-07-29T06:06:20.355Z,21.90
2022-07-29T06:08:49.678Z,21.90
2022-07-29T06:11:19.031Z,22.10
2022-07-29T06:13:48.783Z,22.10
2022-07-29T06:16:29.784Z,22.30
2022-07-29T06:19:01.607Z,22.50
2022-07-29T06:21:30.979Z,22.70
2022-07-29T06:24:00.174Z,22.80
2022-07-29T06:26:31.445Z,22.80
2022-07-29T06:29:01.909Z,22.80
2022-07-29T06:31:31.182Z,22.90
2022-07-29T06:34:01.834Z,23.10
2022-07-29T06:36:32.899Z,23.10
2022-07-29T06:39:02.834Z,23.00
2022-07-29T06:41:33.182Z,23.00
2022-07-29T06:44:09.663Z,23.20
2022-07-29T06:46:39.223Z,23.50
2022-07-29T06:49:10.072Z,23.80
2022-07-29T06:51:39.509Z,24.10
2022-07-29T06:54:08.781Z,24.20
2022-07-29T06:56:40.305Z,24.20
2022-07-29T06:59:11.793Z,24.30
2022-07-29T07:01:42.665Z,24.30
2022-07-29T07:04:15.110Z,24.30
2022-07-29T07:06:44.612Z,24.30
2022-07-29T07:09:13.924Z,24.00
2022-07-29T07:11:43.105Z,24.10
2022-07-29T07:14:12.190Z,24.30
2022-07-29T07:16:41.471Z,24.60
2022-07-29T07:19:10.740Z,25.10
2022-07-29T07:21:41.906Z,25.30
2022-07-29T07:24:12.445Z,25.50
2022-07-29T07:26:42.020Z,25.60
2022-07-29T07:29:11.261Z,25.50
2022-07-29T07:31:40.613Z,25.20
2022-07-29T07:34:10.014Z,25.20
2022-07-29T07:36:40.668Z,25.00
2022-07-29T07:39:10.094Z,24.90
2022-07-29T07:41:39.473Z,25.00
2022-07-29T07:44:15.993Z,25.00
2022-07-29T07:46:46.316Z,25.00
2022-07-29T07:49:16.213Z,25.00
2022-07-29T07:51:50.566Z,25.00
2022-07-29T07:54:21.052Z,25.10
2022-07-29T07:56:53.305Z,25.20
2022-07-29T07:59:25.621Z,25.40
2022-07-29T08:01:55.537Z,25.90
2022-07-29T08:04:28.432Z,26.30
2022-07-29T08:07:03.864Z,26.30
2022-07-29T08:09:33.132Z,26.30
2022-07-29T08:12:04.895Z,26.20
2022-07-29T08:14:35.384Z,26.40
2022-07-29T08:17:04.981Z,26.80
2022-07-29T08:19:34.331Z,26.70
2022-07-29T08:22:05.034Z,27.10
2022-07-29T08:24:48.476Z,27.60
2022-07-29T08:27:41.883Z,27.90
2022-07-29T08:30:09.852Z,28.00
2022-07-29T08:32:55.672Z,28.30
2022-07-29T08:35:26.311Z,28.50
2022-07-29T08:37:58.140Z,28.60
2022-07-29T08:40:32.335Z,29.00
2022-07-29T08:43:07.298Z,28.90
2022-07-29T08:45:48.205Z,28.80
2022-07-29T08:48:19.037Z,28.70
2022-07-29T08:50:50.051Z,28.30
2022-07-29T08:53:21.301Z,28.30
2022-07-29T08:55:52.171Z,28.10
2022-07-29T08:58:24.775Z,27.90
2022-07-29T09:00:56.689Z,27.90
2022-07-29T09:03:33.357Z,27.90
2022-07-29T09:06:03.856Z,28.10
2022-07-29T09:08:35.988Z,28.30
2022-07-29T09:11:05.859Z,28.70
2022-07-29T09:13:35.673Z,29.50
2022-07-29T09:16:11.276Z,29.70
2022-07-29T09:18:41.856Z,29.80
2022-07-29T09:21:30.513Z,29.80
2022-07-29T09:24:06.774Z,29.80
2022-07-29T09:26:38.026Z,29.80
2022-07-29T09:29:14.794Z,29.50
2022-07-29T09:31:46.253Z,29.10
2022-07-29T09:34:17.294Z,29.40
2022-07-29T09:36:48.577Z,29.90
2022-07-29T09:39:30.452Z,30.30
2022-07-29T09:42:03.102Z,30.00
2022-07-29T09:44:45.222Z,29.60
2022-07-29T09:47:14.851Z,29.50
2022-07-29T09:49:59.450Z,29.70
2022-07-29T09:52:29.359Z,30.00
2022-07-29T09:55:09.660Z,29.90
2022-07-29T09:57:39.020Z,30.40
2022-07-29T10:00:11.809Z,30.50
2022-07-29T10:05:20.810Z,30.80
2022-07-29T10:07:53.843Z,30.50
2022-07-29T10:10:27.752Z,30.40
2022-07-29T10:13:01.882Z,30.60
2022-07-29T10:15:40.412Z,30.90
2022-07-29T10:18:11.109Z,30.60
2022-07-29T10:20:41.176Z,30.40
2022-07-29T10:23:11.184Z,30.10
2022-07-29T10:25:46.175Z,30.10
2022-07-29T10:28:16.862Z,30.20
2022-07-29T10:30:48.179Z,30.20
2022-07-29T10:33:38.058Z,30.00
2022-07-29T10:36:30.143Z,29.80
2022-07-29T10:39:08.011Z,30.00
2022-07-29T10:42:01.947Z,29.80
2022-07-29T10:44:33.397Z,29.90
2022-07-29T10:47:04.279Z,30.90
2022-07-29T10:49:33.761Z,31.10
2022-07-29T10:52:09.151Z,30.70
2022-07-29T10:54:51.428Z,30.90
2022-07-29T10:57:52.708Z,30.70
2022-07-29T11:00:32.720Z,30.90
2022-07-29T11:03:04.742Z,31.00
2022-07-29T11:05:56.819Z,31.00
2022-07-29T11:08:29.587Z,31.50
2022-07-29T11:11:35.086Z,32.10
2022-07-29T11:14:06.051Z,32.10
2022-07-29T11:17:06.304Z,32.30
2022-07-29T11:19:40.330Z,32.30
2022-07-29T11:22:16.655Z,32.20
2022-07-29T11:24:50.304Z,32.40
2022-07-29T11:27:21.351Z,32.00
2022-07-29T11:29:55.793Z,32.00
2022-07-29T11:32:29.317Z,31.80
2022-07-29T11:35:17.817Z,31.80
2022-07-29T11:37:52.484Z,31.80
2022-07-29T11:40:24.772Z,31.80
2022-07-29T11:42:54.901Z,31.90
2022-07-29T11:45:43.029Z,31.90
2022-07-29T11:51:13.405Z,32.40
2022-07-29T11:53:44.334Z,32.10
2022-07-29T11:56:17.312Z,31.40
2022-07-29T11:58:47.298Z,30.80
2022-07-29T12:01:20.914Z,30.40
2022-07-29T12:03:51.208Z,30.00
2022-07-29T12:06:21.910Z,29.80
2022-07-29T12:08:51.067Z,29.70
2022-07-29T12:11:23.444Z,29.60
2022-07-29T12:13:53.555Z,29.70
2022-07-29T12:16:26.164Z,29.60
2022-07-29T12:19:00.343Z,29.70
2022-07-29T12:21:30.194Z,29.60
2022-07-29T12:24:08.750Z,29.40
2022-07-29T12:26:40.468Z,29.40
2022-07-29T12:29:14.779Z,29.30
2022-07-29T12:31:47.758Z,29.20
2022-07-29T12:34:18.373Z,29.10
2022-07-29T12:36:47.780Z,29.00
2022-07-29T12:39:19.653Z,28.90
2022-07-29T12:41:48.981Z,28.80
2022-07-29T12:44:18.400Z,28.70
2022-07-29T12:47:03.634Z,28.60
2022-07-29T12:49:37.981Z,28.70
2022-07-29T12:52:28.953Z,28.70
2022-07-29T12:54:58.924Z,28.70
2022-07-29T12:57:28.587Z,28.70
2022-07-29T13:00:11.820Z,28.70
2022-07-29T13:02:45.614Z,28.60
2022-07-29T13:05:15.219Z,28.50
2022-07-29T13:07:55.894Z,28.40
2022-07-29T13:10:27.298Z,28.50
2022-07-29T13:13:07.694Z,28.60
2022-07-29T13:15:37.496Z,28.90
2022-07-29T13:18:31.411Z,28.80
2022-07-29T13:21:13.775Z,28.80
2022-07-29T13:23:43.382Z,28.80
2022-07-29T13:26:13.835Z,28.70
2022-07-29T13:28:44.165Z,28.70
2022-07-29T13:31:13.923Z,28.80
2022-07-29T13:33:44.632Z,28.90
2022-07-29T13:36:13.816Z,29.00
2022-07-29T13:38:43.503Z,29.00
2022-07-29T13:41:14.692Z,29.20
2022-07-29T13:43:44.056Z,29.30
2022-07-29T13:46:13.399Z,29.10
2022-07-29T13:48:44.245Z,29.00
2022-07-29T13:51:13.493Z,28.80
2022-07-29T13:53:42.894Z,28.70
2022-07-29T13:56:12.137Z,28.50
2022-07-29T13:58:41.222Z,28.70
2022-07-29T14:01:10.425Z,28.60
2022-07-29T14:03:45.705Z,28.50
2022-07-29T14:06:16.710Z,28.50
2022-07-29T14:08:47.835Z,28.50
2022-07-29T14:11:17.176Z,28.70
2022-07-29T14:13:46.542Z,28.90
2022-07-29T14:16:16.222Z,29.00
2022-07-29T14:18:46.866Z,28.90
2022-07-29T14:21:17.974Z,28.80
2022-07-29T14:23:50.301Z,28.80
2022-07-29T14:26:21.681Z,28.70
2022-07-29T14:28:53.428Z,28.70
2022-07-29T14:31:22.527Z,28.50
2022-07-29T14:33:51.710Z,28.50
2022-07-29T14:36:22.820Z,28.50
2022-07-29T14:38:52.239Z,28.50
2022-07-29T14:41:22.984Z,28.50
2022-07-29T14:43:54.140Z,28.40
2022-07-29T14:46:23.644Z,28.40
2022-07-29T14:48:52.988Z,28.40
2022-07-29T14:51:23.999Z,28.40
2022-07-29T14:54:01.785Z,28.40
2022-07-29T14:56:36.974Z,28.40
2022-07-29T14:59:07.134Z,28.60
2022-07-29T15:01:36.419Z,28.40
2022-07-29T15:04:06.152Z,28.50
2022-07-29T15:06:37.812Z,28.50
2022-07-29T15:09:07.103Z,28.50
2022-07-29T15:11:38.217Z,28.60
2022-07-29T15:14:08.463Z,28.60
2022-07-29T15:16:46.726Z,28.50
2022-07-29T15:19:17.593Z,28.40
2022-07-29T15:21:49.179Z,28.30
2022-07-29T15:24:19.415Z,28.30
2022-07-29T15:26:49.150Z,28.40
2022-07-29T15:29:18.345Z,28.40
2022-07-29T15:31:47.879Z,28.50
2022-07-29T15:34:17.110Z,28.40
2022-07-29T15:36:52.861Z,28.40
2022-07-29T15:39:23.275Z,28.50
2022-07-29T15:41:52.783Z,28.60
2022-07-29T15:44:22.635Z,28.60
2022-07-29T15:47:07.771Z,28.50
2022-07-29T15:49:48.667Z,28.50
2022-07-29T15:52:25.283Z,28.40
2022-07-29T15:54:56.250Z,28.60
2022-07-29T15:57:26.225Z,28.40
2022-07-29T15:59:55.497Z,28.20
2022-07-29T16:02:25.036Z,28.00
2022-07-29T16:04:54.421Z,28.00
2022-07-29T16:07:25.812Z,28.10
2022-07-29T16:10:00.997Z,28.20
2022-07-29T16:12:30.518Z,28.30
2022-07-29T16:14:59.860Z,28.30
2022-07-29T16:17:29.098Z,28.00
2022-07-29T16:19:58.355Z,27.90
2022-07-29T16:22:29.293Z,27.80
2022-07-29T16:24:58.739Z,27.70
2022-07-29T16:27:31.368Z,27.70
2022-07-29T16:30:08.589Z,27.80
2022-07-29T16:32:37.893Z,27.90
2022-07-29T16:35:08.229Z,27.90
2022-07-29T16:37:39.592Z,28.00
2022-07-29T16:40:11.660Z,28.00
2022-07-29T16:42:46.894Z,28.00
2022-07-29T16:45:17.467Z,27.90
2022-07-29T16:47:47.386Z,28.00
2022-07-29T16:50:16.559Z,28.10
2022-07-29T16:52:47.333Z,28.50
2022-07-29T16:55:16.559Z,28.90
2022-07-29T16:57:45.958Z,29.10
2022-07-29T17:00:16.860Z,29.10
2022-07-29T17:02:46.195Z,28.80
2022-07-29T17:05:16.143Z,28.50
2022-07-29T17:07:47.420Z,28.20
2022-07-29T17:10:16.634Z,27.90
2022-07-29T17:12:46.036Z,27.80
2022-07-29T17:15:17.075Z,27.70
2022-07-29T17:17:55.104Z,27.50
2022-07-29T17:20:24.836Z,27.40
2022-07-29T17:22:55.640Z,27.30
2022-07-29T17:25:25.960Z,27.30
2022-07-29T17:28:00.572Z,27.30
2022-07-29T17:30:30.613Z,27.20
2022-07-29T17:32:59.740Z,27.00
2022-07-29T17:35:46.109Z,26.90
2022-07-29T17:38:16.725Z,26.80
2022-07-29T17:40:46.023Z,26.70
2022-07-29T17:43:15.070Z,26.60
2022-07-29T17:45:49.960Z,26.60
2022-07-29T17:48:20.434Z,26.50
2022-07-29T17:50:50.159Z,26.40
2022-07-29T17:53:22.559Z,26.30
2022-07-29T17:55:52.142Z,26.30
2022-07-29T17:58:21.375Z,26.30
2022-07-29T18:00:50.659Z,26.20
2022-07-29T18:03:19.972Z,26.10
2022-07-29T18:05:49.772Z,26.00
2022-07-29T18:08:20.788Z,26.00
2022-07-29T18:10:50.299Z,25.80
2022-07-29T18:13:20.517Z,25.70
2022-07-29T18:15:49.751Z,25.60
2022-07-29T18:18:19.338Z,25.50
2022-07-29T18:20:48.881Z,25.40
2022-07-29T18:23:19.679Z,25.30
2022-07-29T18:25:49.134Z,25.30
2022-07-29T18:28:18.375Z,25.10
2022-07-29T18:30:47.735Z,25.00
2022-07-29T18:33:22.004Z,24.90
2022-07-29T18:36:10.608Z,24.80
2022-07-29T18:38:42.906Z,24.70
2022-07-29T18:41:12.187Z,24.60
2022-07-29T18:43:41.429Z,24.50
2022-07-29T18:46:10.858Z,24.50
2022-07-29T18:48:42.258Z,24.40
2022-07-29T18:51:11.613Z,24.30
2022-07-29T18:53:42.348Z,24.00
2022-07-29T18:56:11.597Z,23.90
2022-07-29T18:58:40.853Z,23.90
2022-07-29T19:01:14.745Z,23.70
2022-07-29T19:03:46.105Z,23.50
2022-07-29T19:06:15.597Z,23.30
2022-07-29T19:08:46.250Z,23.30
2022-07-29T19:11:15.588Z,23.10
2022-07-29T19:13:44.867Z,23.00
2022-07-29T19:16:14.833Z,22.90
2022-07-29T19:18:44.950Z,22.80
2022-07-29T19:21:14.515Z,22.70
2022-07-29T19:24:06.395Z,22.70
2022-07-29T19:26:36.885Z,22.60
2022-07-29T19:29:06.468Z,22.40
2022-07-29T19:31:35.835Z,22.40
2022-07-29T19:34:05.201Z,22.30
2022-07-29T19:36:34.429Z,22.10
2022-07-29T19:39:05.985Z,22.00
2022-07-29T19:41:35.666Z,21.90
2022-07-29T19:44:04.795Z,21.70
2022-07-29T19:46:34.263Z,21.60
2022-07-29T19:49:03.582Z,21.50
2022-07-29T19:51:32.916Z,21.40
2022-07-29T19:54:03.708Z,21.40
2022-07-29T19:56:33.035Z,21.30
2022-07-29T19:59:03.784Z,21.30
2022-07-29T20:01:36.830Z,21.20
2022-07-29T20:04:06.582Z,21.20
2022-07-29T20:06:36.267Z,21.20
2022-07-29T20:09:07.115Z,21.20
2022-07-29T20:11:39.099Z,21.10
2022-07-29T20:14:08.503Z,21.00
2022-07-29T20:16:37.678Z,21.10
2022-07-29T20:19:06.941Z,20.90
2022-07-29T20:21:36.821Z,20.70
2022-07-29T20:24:08.452Z,20.60
2022-07-29T20:26:38.080Z,20.50
2022-07-29T20:29:07.311Z,20.40
2022-07-29T20:31:40.449Z,20.30
2022-07-29T20:34:09.714Z,20.30
2022-07-29T20:36:39.062Z,20.20
2022-07-29T20:39:09.900Z,20.20
2022-07-29T20:41:39.545Z,20.20
2022-07-29T20:44:08.931Z,20.10
2022-07-29T20:46:39.660Z,20.10
2022-07-29T20:49:09.489Z,20.20
2022-07-29T20:51:43.293Z,20.20
2022-07-29T20:54:14.865Z,20.20
2022-07-29T20:56:44.179Z,20.10
2022-07-29T20:59:13.385Z,20.00
2022-07-29T21:01:42.800Z,19.90
2022-07-29T21:04:12.110Z,19.90
2022-07-29T21:06:41.373Z,20.00
2022-07-29T21:09:10.737Z,19.90
2022-07-29T21:11:44.682Z,19.90
2022-07-29T21:14:27.746Z,19.80
2022-07-29T21:16:57.295Z,19.80
2022-07-29T21:19:26.746Z,19.80
2022-07-29T21:21:55.902Z,19.70
2022-07-29T21:24:25.249Z,19.80
2022-07-29T21:27:21.537Z,19.90
2022-07-29T21:29:50.522Z,19.80
2022-07-29T21:32:27.443Z,19.70
2022-07-29T21:34:59.906Z,19.70
2022-07-29T21:37:29.171Z,19.80
2022-07-29T21:39:58.439Z,19.80
2022-07-29T21:42:29.023Z,19.90
2022-07-29T21:44:58.334Z,19.80
2022-07-29T21:47:27.613Z,19.70
2022-07-29T21:49:56.812Z,19.60
2022-07-29T21:52:25.986Z,19.50
2022-07-29T21:54:55.224Z,19.30
2022-07-29T21:57:24.399Z,19.30
2022-07-29T21:59:58.429Z,19.20
2022-07-29T22:02:30.000Z,19.10
2022-07-29T22:04:59.078Z,19.00
2022-07-29T22:07:56.344Z,18.90
2022-07-29T22:10:17.829Z,18.90
2022-07-29T22:12:46.915Z,18.90
2022-07-29T22:17:46.936Z,18.70
2022-07-29T22:20:16.306Z,18.60
2022-07-29T22:22:46.098Z,18.60
2022-07-29T22:25:18.056Z,18.50
2022-07-29T22:27:47.386Z,18.50
2022-07-29T22:30:18.338Z,18.50
2022-07-29T22:32:48.265Z,18.40
2022-07-29T22:35:18.023Z,18.40
2022-07-29T22:37:47.226Z,18.40
2022-07-29T22:40:16.481Z,18.40
2022-07-29T22:42:45.853Z,18.30
2022-07-29T22:45:16.637Z,18.20
2022-07-29T22:47:46.835Z,18.10
2022-07-29T22:50:18.306Z,18.20
2022-07-29T22:52:47.669Z,18.10
2022-07-29T22:55:17.024Z,18.10
2022-07-29T22:57:46.349Z,17.90
2022-07-29T23:00:17.863Z,17.80
2022-07-29T23:02:47.647Z,17.80
2022-07-29T23:05:17.144Z,17.80
2022-07-29T23:07:46.360Z,17.70
2022-07-29T23:10:15.675Z,17.70
2022-07-29T23:12:44.998Z,17.70
2022-07-29T23:15:14.660Z,17.80
2022-07-29T23:17:45.521Z,17.80
2022-07-29T23:20:15.099Z,17.70
2022-07-29T23:22:44.474Z,17.80
2022-07-29T23:25:13.708Z,17.70
2022-07-29T23:27:43.219Z,17.60
2022-07-29T23:30:13.295Z,17.60
2022-07-29T23:32:42.551Z,17.60
2022-07-29T23:35:13.350Z,17.60
2022-07-29T23:37:42.547Z,17.60
2022-07-29T23:40:14.746Z,17.50
2022-07-29T23:42:45.053Z,17.40
2022-07-29T23:45:15.094Z,17.40
2022-07-29T23:47:44.569Z,17.40
2022-07-29T23:50:17.094Z,17.30
2022-07-29T23:52:46.589Z,17.20
2022-07-29T23:55:38.181Z,17.20
2022-07-29T23:58:05.465Z,17.10
